Time;durP1;ratioP1;P1;durP2;ratioP2;P2;SDS_P1;SDS_P2;PMS_P1;PMS_P2;Temp;Humidity;BMP_temperature;BMP_pressure;BME280_temperature;BME280_humidity;BME280_pressure;Samples;Min_cycle;Max_cycle;Signal;HPM_P1;HPM_P2
2022/03/03 00:01:54;;;;;;;;;;;18.40;47.10;;;;;;5022055;28;19929;-68
2022/03/03 00:04:20;;;;;;;;;;;18.40;47.10;;;;;;5022640;28;19967;-67
2022/03/03 00:06:45;;;;;;;;;;;18.30;47.20;;;;;;5022732;28;19928;-67
2022/03/03 00:09:10;;;;;;;;;;;18.30;47.30;;;;;;5004259;28;19994;-67
2022/03/03 00:11:38;;;;;;;;;;;18.40;47.10;;;;;;5022078;28;19920;-67
2022/03/03 00:14:03;;;;;;;;;;;18.40;47.00;;;;;;5022136;28;20639;-67
2022/03/03 00:16:29;;;;;;;;;;;18.40;47.00;;;;;;5003807;28;19913;-67
2022/03/03 00:18:54;;;;;;;;;;;18.30;47.10;;;;;;5021678;28;21000;-67
2022/03/03 00:21:20;;;;;;;;;;;18.20;47.20;;;;;;5022575;28;19917;-68
2022/03/03 00:23:46;;;;;;;;;;;18.20;47.40;;;;;;5019281;28;19917;-67
2022/03/03 00:26:11;;;;;;;;;;;18.10;47.40;;;;;;5004371;28;19913;-67
2022/03/03 00:28:37;;;;;;;;;;;18.10;47.40;;;;;;5021739;28;19924;-66
2022/03/03 00:31:02;;;;;;;;;;;18.20;47.40;;;;;;5022487;28;19924;-67
2022/03/03 00:33:28;;;;;;;;;;;18.20;47.20;;;;;;5025584;28;20440;-66
2022/03/03 00:35:53;;;;;;;;;;;18.20;47.10;;;;;;5025650;28;20002;-66
2022/03/03 00:38:19;;;;;;;;;;;18.20;47.20;;;;;;5025870;28;19913;-67
2022/03/03 00:40:44;;;;;;;;;;;18.20;47.20;;;;;;5007100;28;20324;-68
2022/03/03 00:43:10;;;;;;;;;;;18.20;47.10;;;;;;5025636;28;19920;-67
2022/03/03 00:45:35;;;;;;;;;;;18.20;47.10;;;;;;5007934;28;19971;-67
2022/03/03 00:48:01;;;;;;;;;;;18.10;47.20;;;;;;5006590;28;19917;-67
2022/03/03 00:50:26;;;;;;;;;;;18.10;47.30;;;;;;5024668;28;20331;-66
2022/03/03 00:52:52;;;;;;;;;;;18.10;47.20;;;;;;5007936;28;19925;-67
2022/03/03 00:55:17;;;;;;;;;;;18.10;47.10;;;;;;5025444;28;19960;-67
2022/03/03 00:57:42;;;;;;;;;;;18.10;47.10;;;;;;5025186;28;20543;-67
2022/03/03 01:00:09;;;;;;;;;;;18.20;47.10;;;;;;5023983;28;19913;-67
2022/03/03 01:02:34;;;;;;;;;;;18.10;47.00;;;;;;5024819;28;19917;-67
2022/03/03 01:05:00;;;;;;;;;;;18.00;47.20;;;;;;5024681;28;19928;-67
2022/03/03 01:07:25;;;;;;;;;;;18.00;47.20;;;;;;5023154;28;19917;-66
2022/03/03 01:09:51;;;;;;;;;;;18.10;47.00;;;;;;5007056;28;19913;-67
2022/03/03 01:12:16;;;;;;;;;;;18.10;47.10;;;;;;5007513;28;19913;-67
2022/03/03 01:14:42;;;;;;;;;;;18.00;47.10;;;;;;5006739;28;20345;-69
2022/03/03 01:17:07;;;;;;;;;;;18.10;47.10;;;;;;5023592;28;19924;-68
2022/03/03 01:19:33;;;;;;;;;;;18.00;47.00;;;;;;5007276;28;20613;-68
2022/03/03 01:21:58;;;;;;;;;;;18.00;47.10;;;;;;5024915;28;19913;-68
2022/03/03 01:24:24;;;;;;;;;;;18.00;47.00;;;;;;5025181;28;20100;-67
2022/03/03 01:26:49;;;;;;;;;;;18.00;47.00;;;;;;5023974;28;19919;-66
2022/03/03 01:29:15;;;;;;;;;;;18.10;46.90;;;;;;5024423;28;20311;-67
2022/03/03 01:31:40;;;;;;;;;;;18.00;47.00;;;;;;5006582;28;20265;-67
2022/03/03 01:34:09;;;;;;;;;;;18.00;47.00;;;;;;5024473;28;20003;-67
2022/03/03 01:36:34;;;;;;;;;;;18.00;47.20;;;;;;5007183;28;19925;-67
2022/03/03 01:39:00;;;;;;;;;;;18.00;47.10;;;;;;5023714;28;20273;-67
2022/03/03 01:41:25;;;;;;;;;;;17.90;47.10;;;;;;5025316;28;19913;-67
2022/03/03 01:43:51;;;;;;;;;;;17.90;47.10;;;;;;5024097;28;19973;-67
2022/03/03 01:46:16;;;;;;;;;;;17.90;47.10;;;;;;5007139;28;19940;-67
2022/03/03 01:48:43;;;;;;;;;;;17.90;47.20;;;;;;5024330;28;20063;-67
2022/03/03 01:51:08;;;;;;;;;;;18.00;47.10;;;;;;5006300;28;20056;-67
2022/03/03 01:53:34;;;;;;;;;;;17.90;47.10;;;;;;5024859;28;20561;-67
2022/03/03 01:55:59;;;;;;;;;;;17.80;47.30;;;;;;5023782;28;19917;-67
2022/03/03 01:58:25;;;;;;;;;;;17.90;47.20;;;;;;5006700;28;19932;-67
2022/03/03 02:00:51;;;;;;;;;;;17.90;47.10;;;;;;5023164;28;19936;-67
2022/03/03 02:03:16;;;;;;;;;;;17.90;47.20;;;;;;5023775;28;20342;-67
2022/03/03 02:05:42;;;;;;;;;;;17.90;47.10;;;;;;5024119;28;19916;-67
2022/03/03 02:08:07;;;;;;;;;;;17.80;47.10;;;;;;5006205;28;19925;-67
2022/03/03 02:10:33;;;;;;;;;;;17.90;47.10;;;;;;5004722;28;19956;-67
2022/03/03 02:12:58;;;;;;;;;;;17.90;47.10;;;;;;5023995;28;19913;-67
2022/03/03 02:15:23;;;;;;;;;;;17.90;47.10;;;;;;5024130;28;20551;-67
2022/03/03 02:17:49;;;;;;;;;;;17.90;47.00;;;;;;5006043;28;19921;-68
2022/03/03 02:20:19;;;;;;;;;;;17.90;47.00;;;;;;5005613;28;19913;-67
2022/03/03 02:22:44;;;;;;;;;;;18.00;46.80;;;;;;5007074;28;19921;-67
2022/03/03 02:25:10;;;;;;;;;;;17.80;46.90;;;;;;5022144;28;19917;-67
2022/03/03 02:27:35;;;;;;;;;;;17.80;46.90;;;;;;5006145;28;20391;-67
2022/03/03 02:30:00;;;;;;;;;;;17.80;46.90;;;;;;5005513;28;19913;-66
2022/03/03 02:32:26;;;;;;;;;;;17.80;46.90;;;;;;5006520;28;19913;-66
2022/03/03 02:34:51;;;;;;;;;;;17.80;46.90;;;;;;5024474;28;19979;-64
2022/03/03 02:37:17;;;;;;;;;;;17.80;46.90;;;;;;5006828;28;20272;-66
2022/03/03 02:39:43;;;;;;;;;;;17.80;46.90;;;;;;5024481;28;19913;-66
2022/03/03 02:42:09;;;;;;;;;;;17.80;46.70;;;;;;5005739;28;20008;-67
2022/03/03 02:44:34;;;;;;;;;;;17.80;46.80;;;;;;5004990;28;19966;-67
2022/03/03 02:47:00;;;;;;;;;;;17.80;46.80;;;;;;5023094;28;20444;-67
2022/03/03 02:49:26;;;;;;;;;;;17.70;47.00;;;;;;5005603;28;19913;-67
2022/03/03 02:51:51;;;;;;;;;;;17.80;46.90;;;;;;5005799;28;19940;-67
2022/03/03 02:54:17;;;;;;;;;;;17.70;47.00;;;;;;5023629;28;19917;-66
2022/03/03 02:59:26;;;;;;;;;;;17.80;46.80;;;;;;5024165;28;19978;-67
2022/03/03 03:01:51;;;;;;;;;;;17.70;46.70;;;;;;5022303;28;20384;-66
2022/03/03 03:04:17;;;;;;;;;;;17.70;46.90;;;;;;5023155;28;19943;-67
2022/03/03 03:06:43;;;;;;;;;;;17.70;46.80;;;;;;5013132;28;19914;-67
2022/03/03 03:09:08;;;;;;;;;;;17.70;46.90;;;;;;5010734;28;20584;-67
2022/03/03 03:11:33;;;;;;;;;;;17.60;47.00;;;;;;5023968;28;19920;-68
2022/03/03 03:13:59;;;;;;;;;;;17.40;47.60;;;;;;5023313;28;19917;-67
2022/03/03 03:16:25;;;;;;;;;;;17.40;47.80;;;;;;5005100;28;20012;-68
2022/03/03 03:18:50;;;;;;;;;;;17.60;47.70;;;;;;5022711;28;20347;-67
2022/03/03 03:21:15;;;;;;;;;;;17.80;47.50;;;;;;5005311;28;19956;-67
2022/03/03 03:23:41;;;;;;;;;;;18.20;46.60;;;;;;5022788;28;19928;-68
2022/03/03 03:26:06;;;;;;;;;;;18.30;46.30;;;;;;5022573;28;20336;-68
2022/03/03 03:28:32;;;;;;;;;;;18.40;46.20;;;;;;5004352;28;19913;-67
2022/03/03 03:30:57;;;;;;;;;;;18.60;45.90;;;;;;5004786;28;19928;-66
2022/03/03 03:33:23;;;;;;;;;;;18.70;45.50;;;;;;5005296;28;19960;-67
2022/03/03 03:35:48;;;;;;;;;;;18.90;45.30;;;;;;5005110;28;19940;-67
2022/03/03 03:38:14;;;;;;;;;;;19.10;44.90;;;;;;5004534;28;20376;-67
2022/03/03 03:40:39;;;;;;;;;;;19.30;44.40;;;;;;5022265;28;19913;-67
2022/03/03 03:43:05;;;;;;;;;;;19.50;44.10;;;;;;5012481;28;19987;-67
2022/03/03 03:45:31;;;;;;;;;;;19.50;43.90;;;;;;5021244;28;20291;-67
2022/03/03 03:47:57;;;;;;;;;;;19.70;43.70;;;;;;5022270;28;19915;-66
2022/03/03 03:50:22;;;;;;;;;;;19.80;43.60;;;;;;5005690;28;20009;-66
2022/03/03 03:52:48;;;;;;;;;;;19.80;43.40;;;;;;5004718;28;20424;-66
2022/03/03 03:55:13;;;;;;;;;;;19.90;43.40;;;;;;5004909;28;19913;-65
2022/03/03 03:57:39;;;;;;;;;;;19.90;43.30;;;;;;4989131;28;19928;-66
2022/03/03 04:00:05;;;;;;;;;;;19.90;43.30;;;;;;5022653;28;19913;-66
2022/03/03 04:02:30;;;;;;;;;;;19.90;43.40;;;;;;5022511;28;19920;-66
2022/03/03 04:04:56;;;;;;;;;;;19.80;43.50;;;;;;5010393;28;19921;-66
2022/03/03 04:07:21;;;;;;;;;;;19.80;43.70;;;;;;5023960;28;19947;-66
2022/03/03 04:09:47;;;;;;;;;;;19.80;43.60;;;;;;5008341;28;19936;-66
2022/03/03 04:12:12;;;;;;;;;;;19.70;43.70;;;;;;5027147;28;19917;-66
2022/03/03 04:14:38;;;;;;;;;;;19.60;43.90;;;;;;5026072;28;19921;-66
2022/03/03 04:17:03;;;;;;;;;;;19.40;44.30;;;;;;4992529;28;20423;-66
2022/03/03 04:19:28;;;;;;;;;;;19.20;44.50;;;;;;5027680;28;19921;-66
2022/03/03 04:21:54;;;;;;;;;;;19.10;44.70;;;;;;5026662;28;19935;-66
2022/03/03 04:24:19;;;;;;;;;;;19.00;45.00;;;;;;5026383;28;20424;-66
2022/03/03 04:26:45;;;;;;;;;;;18.90;45.10;;;;;;5026880;28;19917;-66
2022/03/03 04:29:10;;;;;;;;;;;18.90;45.20;;;;;;5025379;28;19959;-66
2022/03/03 04:31:36;;;;;;;;;;;18.80;45.20;;;;;;5025428;28;19928;-66
2022/03/03 04:34:01;;;;;;;;;;;18.80;45.30;;;;;;5026000;28;19917;-66
2022/03/03 04:36:27;;;;;;;;;;;18.70;45.40;;;;;;5025714;28;19913;-66
2022/03/03 04:38:52;;;;;;;;;;;18.70;45.50;;;;;;5007646;28;19921;-66
2022/03/03 04:41:18;;;;;;;;;;;18.60;45.50;;;;;;5024985;28;19914;-67
2022/03/03 04:43:43;;;;;;;;;;;18.60;45.50;;;;;;5009749;28;19917;-67
2022/03/03 04:46:08;;;;;;;;;;;18.50;45.70;;;;;;5008193;28;19913;-66
2022/03/03 04:48:34;;;;;;;;;;;18.50;45.80;;;;;;5007677;28;19917;-66
2022/03/03 04:51:00;;;;;;;;;;;18.40;45.90;;;;;;5007941;28;19920;-65
2022/03/03 04:53:25;;;;;;;;;;;18.40;46.10;;;;;;5007916;28;19917;-66
2022/03/03 04:55:51;;;;;;;;;;;18.20;46.10;;;;;;5008014;28;19913;-65
2022/03/03 04:58:16;;;;;;;;;;;18.30;46.20;;;;;;5025389;28;19914;-67
2022/03/03 05:00:42;;;;;;;;;;;18.20;46.20;;;;;;5024929;28;20413;-66
2022/03/03 05:03:07;;;;;;;;;;;18.20;46.30;;;;;;5026019;28;19928;-66
2022/03/03 05:05:33;;;;;;;;;;;18.20;46.30;;;;;;5008480;28;19917;-66
2022/03/03 05:07:58;;;;;;;;;;;18.10;46.30;;;;;;5026383;28;19925;-66
2022/03/03 05:10:24;;;;;;;;;;;18.10;46.50;;;;;;5009508;28;19923;-66
2022/03/03 05:12:49;;;;;;;;;;;18.10;46.30;;;;;;5028272;28;19928;-65
2022/03/03 05:15:14;;;;;;;;;;;18.00;46.30;;;;;;5025686;28;19917;-67
2022/03/03 05:17:40;;;;;;;;;;;17.90;46.60;;;;;;5007202;28;19913;-66
2022/03/03 05:20:06;;;;;;;;;;;17.90;46.60;;;;;;5007449;28;20296;-66
2022/03/03 05:22:31;;;;;;;;;;;17.90;46.40;;;;;;5025177;28;19924;-65
2022/03/03 05:24:57;;;;;;;;;;;17.80;46.40;;;;;;5025069;28;19948;-66
2022/03/03 05:27:22;;;;;;;;;;;17.80;46.60;;;;;;5007610;28;19913;-65
2022/03/03 05:29:48;;;;;;;;;;;17.70;46.70;;;;;;5024794;28;19913;-65
2022/03/03 05:32:13;;;;;;;;;;;17.80;46.80;;;;;;5025984;28;20207;-66
2022/03/03 05:34:39;;;;;;;;;;;17.70;46.70;;;;;;5026088;28;19925;-66
2022/03/03 05:37:07;;;;;;;;;;;17.70;46.80;;;;;;5025253;28;19913;-66
2022/03/03 05:39:33;;;;;;;;;;;17.60;46.70;;;;;;5006843;28;19928;-66
2022/03/03 05:41:58;;;;;;;;;;;17.70;46.70;;;;;;5007597;28;19913;-66
2022/03/03 05:44:24;;;;;;;;;;;17.70;46.80;;;;;;5025035;28;19968;-66
2022/03/03 05:46:50;;;;;;;;;;;17.70;46.70;;;;;;5024067;28;19917;-66
2022/03/03 05:49:15;;;;;;;;;;;17.70;46.70;;;;;;5007567;28;19913;-66
2022/03/03 05:51:41;;;;;;;;;;;17.60;46.80;;;;;;5007713;28;19967;-66
2022/03/03 05:54:06;;;;;;;;;;;17.70;46.70;;;;;;5006730;28;19917;-66
2022/03/03 05:56:32;;;;;;;;;;;17.70;46.70;;;;;;5025229;28;20510;-66
2022/03/03 05:58:58;;;;;;;;;;;17.60;46.70;;;;;;5006763;28;19913;-66
2022/03/03 06:01:24;;;;;;;;;;;17.70;46.40;;;;;;5007375;28;19917;-66
2022/03/03 06:03:50;;;;;;;;;;;17.60;46.60;;;;;;5024360;28;19971;-66
2022/03/03 06:06:21;;;;;;;;;;;17.60;46.90;;;;;;5007601;28;19913;-66
2022/03/03 06:08:55;;;;;;;;;;;17.60;46.70;;;;;;5006811;28;19925;-67
2022/03/03 06:11:20;;;;;;;;;;;17.70;46.50;;;;;;5024922;28;19959;-64
2022/03/03 06:13:46;;;;;;;;;;;17.60;46.50;;;;;;5025941;28;19913;-65
2022/03/03 06:16:15;;;;;;;;;;;17.60;46.60;;;;;;5007106;28;20376;-63
2022/03/03 06:18:41;;;;;;;;;;;17.60;46.90;;;;;;5023320;28;19913;-65
2022/03/03 06:21:06;;;;;;;;;;;17.60;47.00;;;;;;5009575;28;19909;-64
2022/03/03 06:23:31;;;;;;;;;;;17.70;47.00;;;;;;4975660;28;19917;-63
2022/03/03 06:26:03;;;;;;;;;;;17.60;47.10;;;;;;5026100;28;19909;-64
2022/03/03 06:28:29;;;;;;;;;;;17.60;47.70;;;;;;5008050;28;19916;-63
2022/03/03 06:30:55;;;;;;;;;;;17.90;47.50;;;;;;5025169;28;19917;-64
2022/03/03 06:33:20;;;;;;;;;;;18.20;46.70;;;;;;5026034;28;19940;-63
2022/03/03 06:35:46;;;;;;;;;;;18.30;46.40;;;;;;5026493;28;19909;-66
2022/03/03 06:38:11;;;;;;;;;;;18.40;46.30;;;;;;5025427;28;20423;-65
2022/03/03 06:40:37;;;;;;;;;;;18.50;46.10;;;;;;5030833;28;19913;-64
2022/03/03 06:43:02;;;;;;;;;;;18.60;46.10;;;;;;5028535;28;19932;-65
2022/03/03 06:45:28;;;;;;;;;;;18.60;46.70;;;;;;4977974;28;19917;-65
2022/03/03 06:47:54;;;;;;;;;;;18.60;46.50;;;;;;5026420;28;19951;-64
2022/03/03 06:50:20;;;;;;;;;;;18.60;46.40;;;;;;5026952;28;19917;-65
2022/03/03 06:52:46;;;;;;;;;;;18.60;46.80;;;;;;5000887;28;20298;-64
2022/03/03 06:55:13;;;;;;;;;;;18.60;45.90;;;;;;5008036;28;19909;-65
2022/03/03 06:57:38;;;;;;;;;;;18.60;45.70;;;;;;5009237;28;19935;-65
2022/03/03 07:00:04;;;;;;;;;;;18.50;45.70;;;;;;4984877;28;19910;-64
2022/03/03 07:02:30;;;;;;;;;;;18.60;45.50;;;;;;5027017;28;19917;-64
2022/03/03 07:04:55;;;;;;;;;;;18.50;45.40;;;;;;4988901;28;20008;-65
2022/03/03 07:07:21;;;;;;;;;;;18.40;45.50;;;;;;5025018;28;20221;-65
2022/03/03 07:09:46;;;;;;;;;;;18.40;45.40;;;;;;5025567;28;19909;-65
2022/03/03 07:12:12;;;;;;;;;;;18.40;45.60;;;;;;5007744;28;19967;-64
2022/03/03 07:14:38;;;;;;;;;;;18.40;45.50;;;;;;5026633;28;19913;-65
2022/03/03 07:17:04;;;;;;;;;;;18.30;45.60;;;;;;5005207;28;20008;-65
2022/03/03 07:19:34;;;;;;;;;;;18.30;45.30;;;;;;5010873;28;19905;-65
2022/03/03 07:22:10;;;;;;;;;;;18.30;45.30;;;;;;4997370;28;19913;-64
2022/03/03 07:24:43;;;;;;;;;;;18.40;45.20;;;;;;5011249;28;20043;-65
2022/03/03 07:27:08;;;;;;;;;;;18.30;45.30;;;;;;5015657;28;19910;-65
2022/03/03 07:29:34;;;;;;;;;;;18.40;45.40;;;;;;4977185;28;19921;-65
2022/03/03 07:32:03;;;;;;;;;;;18.40;45.80;;;;;;5000828;28;19913;-65
2022/03/03 07:34:30;;;;;;;;;;;18.40;45.60;;;;;;5011228;28;19940;-65
2022/03/03 07:36:56;;;;;;;;;;;18.30;45.40;;;;;;5026476;28;19967;-67
2022/03/03 07:39:21;;;;;;;;;;;18.30;45.60;;;;;;5027707;28;19914;-68
2022/03/03 07:41:47;;;;;;;;;;;18.40;47.30;;;;;;4998464;28;19919;-67
2022/03/03 07:44:12;;;;;;;;;;;18.40;47.60;;;;;;5009980;28;19925;-67
2022/03/03 07:46:37;;;;;;;;;;;18.40;47.60;;;;;;5021701;28;20403;-66
2022/03/03 07:49:03;;;;;;;;;;;18.40;48.30;;;;;;5011664;28;19956;-65
2022/03/03 07:51:28;;;;;;;;;;;18.50;48.40;;;;;;4992933;28;19913;-67
2022/03/03 07:53:54;;;;;;;;;;;18.50;48.30;;;;;;5025649;28;19914;-67
2022/03/03 07:56:21;;;;;;;;;;;18.60;48.40;;;;;;5026355;28;20424;-67
2022/03/03 07:58:46;;;;;;;;;;;18.60;48.40;;;;;;5010029;28;20485;-64
2022/03/03 08:01:13;;;;;;;;;;;18.60;48.50;;;;;;5011758;28;19921;-65
2022/03/03 08:03:42;;;;;;;;;;;18.70;48.50;;;;;;5017457;28;19925;-64
2022/03/03 08:06:07;;;;;;;;;;;18.70;48.40;;;;;;5035682;28;19917;-65
2022/03/03 08:08:33;;;;;;;;;;;18.70;48.30;;;;;;4958665;28;1685091;-65
2022/03/03 08:10:59;;;;;;;;;;;18.70;48.00;;;;;;5001873;28;19928;-64
2022/03/03 08:13:26;;;;;;;;;;;18.60;47.90;;;;;;5035218;28;19989;-64
2022/03/03 08:15:52;;;;;;;;;;;18.60;47.70;;;;;;5017096;28;19921;-62
2022/03/03 08:18:17;;;;;;;;;;;18.60;47.50;;;;;;5036884;28;19936;-65
2022/03/03 08:20:42;;;;;;;;;;;18.60;47.30;;;;;;5018898;28;19939;-66
2022/03/03 08:23:08;;;;;;;;;;;18.70;47.10;;;;;;5036501;28;19913;-64
2022/03/03 08:25:33;;;;;;;;;;;18.60;47.10;;;;;;5036293;28;19917;-64
2022/03/03 08:27:59;;;;;;;;;;;18.60;47.00;;;;;;5035078;28;19917;-65
2022/03/03 08:30:24;;;;;;;;;;;18.50;47.00;;;;;;5018228;28;19913;-65
2022/03/03 08:32:56;;;;;;;;;;;18.50;46.90;;;;;;5035417;28;19921;-65
2022/03/03 08:35:22;;;;;;;;;;;18.50;46.80;;;;;;5034198;28;19913;-67
2022/03/03 08:37:52;;;;;;;;;;;18.50;46.80;;;;;;5013640;28;19964;-66
2022/03/03 08:40:18;;;;;;;;;;;18.50;47.00;;;;;;5031881;28;19913;-65
2022/03/03 08:42:44;;;;;;;;;;;18.50;47.10;;;;;;5031069;28;20379;-65
2022/03/03 08:45:10;;;;;;;;;;;18.50;47.50;;;;;;5032134;28;19917;-67
2022/03/03 08:47:37;;;;;;;;;;;18.40;47.70;;;;;;5013405;28;19921;-66
2022/03/03 08:50:08;;;;;;;;;;;18.30;48.00;;;;;;5034063;28;19913;-65
2022/03/03 08:52:34;;;;;;;;;;;18.30;48.20;;;;;;5032067;28;19945;-64
2022/03/03 08:54:59;;;;;;;;;;;18.40;47.90;;;;;;5032020;28;20000;-64
2022/03/03 08:57:25;;;;;;;;;;;18.40;47.70;;;;;;5034826;28;19970;-66
2022/03/03 08:59:51;;;;;;;;;;;18.40;47.60;;;;;;5035593;28;20009;-66
2022/03/03 09:02:16;;;;;;;;;;;18.50;47.40;;;;;;5034804;28;19917;-66
2022/03/03 09:04:43;;;;;;;;;;;18.60;47.30;;;;;;5035196;28;20350;-66
2022/03/03 09:07:08;;;;;;;;;;;18.60;47.00;;;;;;5015237;28;19918;-65
2022/03/03 09:09:34;;;;;;;;;;;18.70;46.90;;;;;;5032761;28;19920;-66
2022/03/03 09:12:01;;;;;;;;;;;18.80;46.70;;;;;;5032967;28;19974;-66
2022/03/03 09:14:27;;;;;;;;;;;18.90;46.50;;;;;;5030849;28;20001;-67
2022/03/03 09:16:52;;;;;;;;;;;19.10;46.10;;;;;;5031566;28;20000;-66
2022/03/03 09:19:18;;;;;;;;;;;19.20;46.10;;;;;;5031600;28;19982;-67
2022/03/03 09:21:44;;;;;;;;;;;19.20;45.80;;;;;;5032089;28;20331;-66
2022/03/03 09:24:09;;;;;;;;;;;19.40;45.80;;;;;;5032237;28;19925;-66
2022/03/03 09:26:35;;;;;;;;;;;19.50;45.60;;;;;;5013115;28;19989;-67
2022/03/03 09:29:00;;;;;;;;;;;19.60;45.30;;;;;;5029838;28;19913;-66
2022/03/03 09:31:26;;;;;;;;;;;19.60;45.30;;;;;;5033121;28;19913;-67
2022/03/03 09:33:51;;;;;;;;;;;19.60;45.20;;;;;;5030686;28;19917;-66
2022/03/03 09:36:18;;;;;;;;;;;19.70;45.20;;;;;;5031165;28;19913;-67
2022/03/03 09:38:43;;;;;;;;;;;19.80;45.10;;;;;;5030529;28;19914;-68
2022/03/03 09:41:09;;;;;;;;;;;19.90;44.90;;;;;;5008675;28;19963;-67
2022/03/03 09:43:34;;;;;;;;;;;19.90;44.80;;;;;;5032185;28;19913;-67
2022/03/03 09:46:00;;;;;;;;;;;19.90;44.80;;;;;;5013491;28;19913;-67
2022/03/03 09:48:25;;;;;;;;;;;19.90;44.80;;;;;;5030043;28;20315;-64
2022/03/03 09:50:51;;;;;;;;;;;19.90;44.80;;;;;;5031197;28;19917;-67
2022/03/03 09:53:17;;;;;;;;;;;19.90;44.70;;;;;;5009463;28;19992;-67
2022/03/03 09:55:42;;;;;;;;;;;20.00;44.70;;;;;;4995199;28;19919;-68
2022/03/03 09:58:08;;;;;;;;;;;20.00;44.70;;;;;;5029357;28;19913;-67
2022/03/03 10:00:36;;;;;;;;;;;20.00;44.60;;;;;;5028461;28;19924;-66
2022/03/03 10:03:09;;;;;;;;;;;20.00;44.50;;;;;;5029717;28;19913;-68
2022/03/03 10:05:39;;;;;;;;;;;20.00;44.80;;;;;;5025245;28;19964;-68
2022/03/03 10:08:05;;;;;;;;;;;20.00;44.70;;;;;;5026437;28;19929;-67
2022/03/03 10:10:31;;;;;;;;;;;19.80;45.00;;;;;;5007166;28;20070;-68
2022/03/03 10:12:56;;;;;;;;;;;19.80;44.90;;;;;;5007371;28;19913;-69
2022/03/03 10:15:26;;;;;;;;;;;19.70;45.00;;;;;;5007468;28;19917;-68
2022/03/03 10:17:58;;;;;;;;;;;19.70;45.10;;;;;;5023826;28;20308;-68
2022/03/03 10:20:23;;;;;;;;;;;19.60;45.20;;;;;;5023913;28;19913;-68
2022/03/03 10:22:57;;;;;;;;;;;19.50;45.20;;;;;;5007112;28;20443;-68
2022/03/03 10:25:42;;;;;;;;;;;19.50;45.30;;;;;;5023302;28;19921;-66
2022/03/03 10:28:11;;;;;;;;;;;19.50;45.50;;;;;;5007251;28;19949;-68
2022/03/03 10:31:06;;;;;;;;;;;19.30;45.60;;;;;;5015785;28;19971;-68
2022/03/03 10:33:33;;;;;;;;;;;19.30;45.90;;;;;;5007276;28;19971;-68
2022/03/03 10:35:59;;;;;;;;;;;19.20;45.80;;;;;;5024464;28;19913;-67
2022/03/03 10:38:24;;;;;;;;;;;19.10;46.10;;;;;;5024844;28;19917;-65
2022/03/03 10:40:50;;;;;;;;;;;19.10;46.10;;;;;;5025499;28;19929;-67
2022/03/03 10:43:15;;;;;;;;;;;19.10;46.50;;;;;;5024379;28;20388;-68
2022/03/03 10:45:57;;;;;;;;;;;19.00;46.30;;;;;;5025583;28;20343;-68
2022/03/03 10:48:23;;;;;;;;;;;19.00;46.30;;;;;;5024459;28;19991;-64
2022/03/03 10:50:48;;;;;;;;;;;19.00;46.30;;;;;;5007757;28;19913;-67
2022/03/03 10:53:18;;;;;;;;;;;18.90;46.30;;;;;;5025410;28;20020;-65
2022/03/03 10:56:00;;;;;;;;;;;18.90;46.40;;;;;;5015129;28;19920;-66
2022/03/03 10:58:44;;;;;;;;;;;18.90;46.50;;;;;;5008453;28;20043;-68
2022/03/03 11:01:10;;;;;;;;;;;18.90;46.50;;;;;;5029868;28;19968;-66
2022/03/03 11:03:36;;;;;;;;;;;18.90;46.60;;;;;;5029977;28;19917;-68
2022/03/03 11:06:02;;;;;;;;;;;18.90;46.70;;;;;;5010666;28;19941;-68
2022/03/03 11:08:27;;;;;;;;;;;18.90;46.90;;;;;;5009891;28;20411;-67
2022/03/03 11:10:53;;;;;;;;;;;18.90;46.90;;;;;;5027684;28;19913;-67
2022/03/03 11:13:18;;;;;;;;;;;18.90;47.00;;;;;;5010532;28;20262;-68
2022/03/03 11:15:44;;;;;;;;;;;18.90;47.70;;;;;;5027768;28;19917;-67
2022/03/03 11:18:09;;;;;;;;;;;18.90;47.20;;;;;;5011212;28;19913;-67
2022/03/03 11:20:35;;;;;;;;;;;18.90;47.10;;;;;;5026972;28;19920;-68
2022/03/03 11:23:00;;;;;;;;;;;18.90;47.20;;;;;;5029166;28;19920;-65
2022/03/03 11:25:28;;;;;;;;;;;18.90;47.30;;;;;;5031297;28;19917;-68
2022/03/03 11:28:07;;;;;;;;;;;18.90;47.30;;;;;;5029704;28;19913;-68
2022/03/03 11:30:33;;;;;;;;;;;18.80;47.30;;;;;;5029021;28;19971;-68
2022/03/03 11:33:17;;;;;;;;;;;18.80;47.50;;;;;;5010888;28;19913;-67
2022/03/03 11:35:47;;;;;;;;;;;18.80;47.40;;;;;;5001148;28;19913;-68
2022/03/03 11:38:12;;;;;;;;;;;18.80;47.50;;;;;;5024649;28;19932;-68
2022/03/03 11:40:38;;;;;;;;;;;18.80;47.60;;;;;;5028428;28;19913;-67
2022/03/03 11:43:12;;;;;;;;;;;18.70;47.70;;;;;;5013325;28;20380;-68
2022/03/03 11:45:42;;;;;;;;;;;18.70;47.70;;;;;;5026425;28;19979;-67
2022/03/03 11:48:09;;;;;;;;;;;18.70;48.50;;;;;;5012131;28;19918;-67
2022/03/03 11:50:34;;;;;;;;;;;18.60;47.90;;;;;;5027379;28;19928;-67
2022/03/03 11:52:59;;;;;;;;;;;18.60;48.60;;;;;;5028450;28;19913;-68
2022/03/03 11:55:28;;;;;;;;;;;18.60;47.80;;;;;;5027680;28;20019;-68
2022/03/03 11:57:57;;;;;;;;;;;18.70;47.80;;;;;;5027553;28;19917;-68
2022/03/03 12:00:23;;;;;;;;;;;18.70;47.90;;;;;;5010279;28;19922;-67
2022/03/03 12:03:07;;;;;;;;;;;18.70;47.90;;;;;;5028884;28;19936;-67
2022/03/03 12:05:32;;;;;;;;;;;18.70;48.00;;;;;;5012043;28;19968;-68
2022/03/03 12:07:58;;;;;;;;;;;18.70;48.10;;;;;;5028247;28;19983;-67
2022/03/03 12:10:24;;;;;;;;;;;18.70;47.90;;;;;;5028964;28;19921;-67
2022/03/03 12:12:49;;;;;;;;;;;18.80;47.80;;;;;;4993541;28;19913;-66
2022/03/03 12:15:15;;;;;;;;;;;18.80;47.80;;;;;;5009808;28;19913;-68
2022/03/03 12:17:45;;;;;;;;;;;18.80;47.70;;;;;;5012439;28;19913;-67
2022/03/03 12:20:35;;;;;;;;;;;18.80;47.70;;;;;;5029010;28;19975;-67
2022/03/03 12:23:13;;;;;;;;;;;18.70;47.70;;;;;;5028672;28;19913;-68
2022/03/03 12:25:51;;;;;;;;;;;18.70;47.80;;;;;;5028365;28;19995;-67
2022/03/03 12:28:17;;;;;;;;;;;18.70;47.90;;;;;;5022405;28;19914;-68
2022/03/03 12:30:43;;;;;;;;;;;18.60;47.90;;;;;;5034089;28;20387;-66
2022/03/03 12:33:10;;;;;;;;;;;18.70;48.00;;;;;;5033390;28;20032;-67
2022/03/03 12:35:35;;;;;;;;;;;18.60;47.90;;;;;;5012788;28;19936;-67
2022/03/03 12:38:02;;;;;;;;;;;18.70;47.90;;;;;;5014638;28;20416;-68
2022/03/03 12:40:29;;;;;;;;;;;18.60;48.60;;;;;;4984337;28;19921;-68
2022/03/03 12:42:55;;;;;;;;;;;18.70;48.70;;;;;;5028261;28;20422;-66
2022/03/03 12:45:20;;;;;;;;;;;19.10;48.00;;;;;;5009230;28;19971;-66
2022/03/03 12:47:46;;;;;;;;;;;19.20;47.80;;;;;;5031209;28;19920;-65
2022/03/03 12:50:12;;;;;;;;;;;19.40;47.60;;;;;;5033067;28;19925;-67
2022/03/03 12:52:38;;;;;;;;;;;19.50;47.40;;;;;;5002180;28;19921;-68
2022/03/03 12:55:07;;;;;;;;;;;19.60;47.20;;;;;;5028989;28;19913;-67
2022/03/03 12:57:33;;;;;;;;;;;19.60;47.30;;;;;;5014207;28;20032;-65
2022/03/03 12:59:59;;;;;;;;;;;19.60;47.20;;;;;;5030363;28;19959;-66
2022/03/03 13:02:24;;;;;;;;;;;19.50;47.00;;;;;;5016286;28;19917;-66
2022/03/03 13:04:50;;;;;;;;;;;19.50;46.90;;;;;;5029089;28;20416;-67
2022/03/03 13:07:17;;;;;;;;;;;19.50;46.80;;;;;;5018431;28;19917;-66
2022/03/03 13:09:52;;;;;;;;;;;19.50;46.80;;;;;;5013069;28;19917;-66
2022/03/03 13:12:18;;;;;;;;;;;19.40;46.70;;;;;;5001678;28;20487;-66
2022/03/03 13:14:43;;;;;;;;;;;19.40;46.60;;;;;;4995396;28;20197;-66
2022/03/03 13:17:08;;;;;;;;;;;19.30;46.50;;;;;;5016893;28;19917;-67
2022/03/03 13:19:45;;;;;;;;;;;19.30;46.30;;;;;;5011103;28;19984;-67
2022/03/03 13:22:11;;;;;;;;;;;19.30;46.00;;;;;;5010585;28;20692;-64
2022/03/03 13:24:36;;;;;;;;;;;19.30;45.90;;;;;;5010500;28;19917;-65
2022/03/03 13:27:02;;;;;;;;;;;19.20;45.80;;;;;;4999804;28;19948;-63
2022/03/03 13:29:28;;;;;;;;;;;19.30;45.80;;;;;;5027711;28;19935;-67
2022/03/03 13:31:53;;;;;;;;;;;19.20;45.60;;;;;;5001615;28;19913;-67
2022/03/03 13:34:21;;;;;;;;;;;19.20;45.60;;;;;;5027932;28;19914;-63
2022/03/03 13:36:47;;;;;;;;;;;19.20;45.30;;;;;;5019926;28;19964;-67
2022/03/03 13:39:22;;;;;;;;;;;19.20;45.20;;;;;;5027830;28;19917;-67
2022/03/03 13:41:57;;;;;;;;;;;19.20;45.10;;;;;;4999052;28;19979;-65
2022/03/03 13:44:23;;;;;;;;;;;19.20;45.00;;;;;;5010176;28;19921;-67
2022/03/03 13:46:58;;;;;;;;;;;19.20;44.90;;;;;;5017714;28;20384;-67
2022/03/03 13:49:24;;;;;;;;;;;19.20;45.00;;;;;;5025136;28;20545;-66
2022/03/03 13:52:03;;;;;;;;;;;19.10;45.50;;;;;;5006824;28;19960;-67
2022/03/03 13:54:38;;;;;;;;;;;19.10;46.30;;;;;;5028283;28;20394;-64
2022/03/03 13:59:52;;;;;;;;;;;19.20;45.90;;;;;;4995336;28;19937;-63
2022/03/03 14:02:18;;;;;;;;;;;19.40;45.80;;;;;;5000692;28;19968;-63
2022/03/03 14:04:59;;;;;;;;;;;19.40;45.50;;;;;;5013992;28;19917;-64
2022/03/03 14:07:25;;;;;;;;;;;19.40;45.50;;;;;;5004294;28;20120;-63
2022/03/03 14:09:57;;;;;;;;;;;19.50;45.40;;;;;;5021629;28;19947;-63
2022/03/03 14:12:22;;;;;;;;;;;19.50;45.50;;;;;;5023951;28;19949;-63
2022/03/03 14:14:48;;;;;;;;;;;19.50;45.60;;;;;;5006474;28;19917;-66
2022/03/03 14:17:13;;;;;;;;;;;19.50;45.60;;;;;;5005347;28;19917;-65
2022/03/03 14:19:40;;;;;;;;;;;19.40;45.70;;;;;;5004106;28;19914;-64